Time;durP1;ratioP1;P1;durP2;ratioP2;P2;SDS_P1;SDS_P2;PMS_P1;PMS_P2;Temp;Humidity;BMP_temperature;BMP_pressure;BME280_temperature;BME280_humidity;BME280_pressure;Samples;Min_cycle;Max_cycle;Signal;HPM_P1;HPM_P2
2021/05/03 00:02:17;;;;;;;6.60;5.55;;;3.20;92.30;;;;;;5041021;28;20153;-46
2021/05/03 00:04:44;;;;;;;8.15;5.80;;;3.30;92.50;;;;;;5031487;28;20049;-45
2021/05/03 00:07:12;;;;;;;10.02;5.68;;;3.30;92.20;;;;;;5038740;28;20069;-44
2021/05/03 00:09:38;;;;;;;10.75;5.68;;;3.20;92.50;;;;;;5036836;28;20053;-46
2021/05/03 00:14:50;;;;;;;11.80;6.00;;;3.30;93.00;;;;;;5048078;28;20047;-47
2021/05/03 00:17:17;;;;;;;8.82;5.90;;;3.40;93.10;;;;;;5042903;28;20052;-45
2021/05/03 00:19:44;;;;;;;12.02;6.03;;;3.40;93.30;;;;;;5025112;28;20044;-46
2021/05/03 00:22:10;;;;;;;7.75;6.10;;;3.40;93.20;;;;;;5042215;28;20052;-46
2021/05/03 00:24:36;;;;;;;8.80;5.38;;;3.40;93.00;;;;;;5040300;28;20521;-48
2021/05/03 00:27:02;;;;;;;9.52;5.90;;;3.40;93.20;;;;;;5032183;28;20041;-46
2021/05/03 00:29:28;;;;;;;8.25;5.88;;;3.40;93.40;;;;;;5042747;28;20204;-45
2021/05/03 00:31:54;;;;;;;7.03;5.40;;;3.40;93.20;;;;;;5033247;28;20049;-48
2021/05/03 00:34:23;;;;;;;11.55;5.43;;;3.40;92.60;;;;;;5041184;28;20052;-44
2021/05/03 00:36:49;;;;;;;10.02;5.60;;;3.30;92.70;;;;;;5031381;28;20045;-45
2021/05/03 00:39:15;;;;;;;9.80;5.78;;;3.30;92.40;;;;;;5041770;28;20064;-45
2021/05/03 00:41:42;;;;;;;8.77;5.63;;;3.30;92.90;;;;;;5042754;28;20059;-44
2021/05/03 00:44:08;;;;;;;7.68;5.57;;;3.20;93.00;;;;;;5041121;28;20049;-46
2021/05/03 00:46:34;;;;;;;7.72;5.97;;;3.30;93.00;;;;;;5038490;28;20107;-45
2021/05/03 00:49:01;;;;;;;9.18;5.97;;;3.20;92.90;;;;;;5032215;28;20106;-46
2021/05/03 00:51:28;;;;;;;7.38;6.07;;;3.30;93.30;;;;;;5025618;28;20053;-46
2021/05/03 00:53:54;;;;;;;7.28;5.63;;;3.30;93.10;;;;;;5037888;28;20378;-44
2021/05/03 00:56:21;;;;;;;9.95;6.80;;;3.40;92.70;;;;;;5039153;28;20132;-45
2021/05/03 00:58:47;;;;;;;8.88;6.20;;;3.40;92.90;;;;;;5040899;28;20085;-45
2021/05/03 01:01:13;;;;;;;8.25;6.88;;;3.50;93.40;;;;;;5035661;28;20049;-48
2021/05/03 01:03:39;;;;;;;10.85;6.55;;;3.50;93.20;;;;;;5036818;28;20275;-46
2021/05/03 01:06:08;;;;;;;10.52;6.75;;;3.50;93.30;;;;;;5038982;28;20770;-46
2021/05/03 01:08:34;;;;;;;9.85;6.97;;;3.60;93.60;;;;;;5036403;28;20045;-46
2021/05/03 01:11:00;;;;;;;10.30;7.07;;;3.70;93.70;;;;;;5038778;28;20406;-46
2021/05/03 01:13:27;;;;;;;9.30;6.80;;;3.70;93.50;;;;;;5038416;28;20548;-44
2021/05/03 01:15:53;;;;;;;10.13;6.78;;;3.70;93.50;;;;;;5037456;28;20041;-45
2021/05/03 01:18:24;;;;;;;9.93;7.25;;;3.80;93.60;;;;;;5037496;28;20135;-46
2021/05/03 01:20:57;;;;;;;9.75;6.85;;;3.80;93.70;;;;;;5034416;28;20451;-45
2021/05/03 01:23:23;;;;;;;;;;;3.90;93.70;;;;;;5034776;28;20049;-44
2021/05/03 01:25:52;;;;;;;9.50;6.63;;;3.90;93.90;;;;;;5035035;28;20411;-45
2021/05/03 01:28:19;;;;;;;11.00;6.07;;;4.00;93.70;;;;;;5037082;28;20765;-47
2021/05/03 01:30:46;;;;;;;13.05;7.38;;;4.00;93.60;;;;;;5020125;28;20408;-45
2021/05/03 01:33:15;;;;;;;8.68;6.45;;;4.10;93.10;;;;;;5030978;28;20081;-46
2021/05/03 01:35:46;;;;;;;8.27;6.38;;;4.00;93.10;;;;;;5037820;28;20071;-46
2021/05/03 01:38:14;;;;;;;8.02;6.70;;;4.00;93.30;;;;;;5039870;28;20708;-45
2021/05/03 01:40:41;;;;;;;9.85;6.82;;;4.00;93.60;;;;;;5039375;28;20056;-45
2021/05/03 01:43:23;;;;;;;10.80;6.70;;;4.00;93.50;;;;;;5038384;28;20088;-45
2021/05/03 01:45:58;;;;;;;8.23;6.55;;;4.10;93.60;;;;;;5034412;28;20047;-45
2021/05/03 01:48:29;;;;;;;9.05;7.70;;;4.00;93.30;;;;;;5032475;28;20417;-46
2021/05/03 01:50:57;;;;;;;8.38;6.93;;;4.10;93.50;;;;;;5039172;28;20068;-45
2021/05/03 01:53:24;;;;;;;11.60;6.45;;;4.10;93.40;;;;;;5042152;28;20480;-46
2021/05/03 01:55:53;;;;;;;9.30;7.15;;;4.10;93.60;;;;;;5038587;28;20045;-45
2021/05/03 01:58:21;;;;;;;10.85;6.72;;;4.20;94.10;;;;;;5038305;28;20126;-45
2021/05/03 02:00:47;;;;;;;9.10;7.22;;;4.10;93.50;;;;;;5040130;28;20183;-45
2021/05/03 02:03:28;;;;;;;10.40;8.35;;;4.20;93.70;;;;;;5034940;28;20048;-44
2021/05/03 02:06:02;;;;;;;10.65;7.30;;;4.30;94.50;;;;;;5035401;28;20438;-47
2021/05/03 02:08:31;;;;;;;11.13;6.68;;;4.20;94.00;;;;;;5032085;28;20401;-45
2021/05/03 02:10:58;;;;;;;8.23;7.38;;;4.40;93.90;;;;;;5029277;28;20087;-46
2021/05/03 02:13:24;;;;;;;9.02;6.75;;;4.30;93.60;;;;;;5037937;28;20054;-45
2021/05/03 02:15:51;;;;;;;9.90;6.82;;;4.40;93.50;;;;;;5023461;28;20064;-44
2021/05/03 02:18:18;;;;;;;8.82;6.43;;;4.50;94.30;;;;;;5042553;28;20079;-46
2021/05/03 02:20:44;;;;;;;9.07;6.93;;;4.50;94.40;;;;;;5030414;28;20042;-46
2021/05/03 02:23:11;;;;;;;8.45;6.05;;;4.50;94.10;;;;;;5035365;28;20478;-46
2021/05/03 02:25:40;;;;;;;10.85;5.68;;;4.60;94.40;;;;;;5015703;28;20091;-47
2021/05/03 02:28:07;;;;;;;7.45;5.95;;;4.60;94.30;;;;;;5041308;28;20125;-45
2021/05/03 02:30:33;;;;;;;9.52;5.85;;;4.70;94.00;;;;;;5038655;28;20049;-45
2021/05/03 02:33:00;;;;;;;9.50;6.05;;;4.70;93.80;;;;;;5033425;28;20046;-45
2021/05/03 02:35:29;;;;;;;7.50;5.50;;;4.80;94.10;;;;;;5038505;28;20495;-47
2021/05/03 02:38:00;;;;;;;6.88;5.68;;;4.80;93.80;;;;;;5035713;28;20054;-44
2021/05/03 02:40:27;;;;;;;7.50;5.93;;;4.80;94.50;;;;;;5033139;28;20048;-47
2021/05/03 02:42:55;;;;;;;7.38;5.00;;;4.80;94.00;;;;;;5039367;28;20688;-47
2021/05/03 02:45:23;;;;;;;11.35;6.22;;;4.80;94.10;;;;;;5043542;28;20048;-46
2021/05/03 02:47:50;;;;;;;7.85;5.47;;;4.90;93.90;;;;;;5036772;28;20072;-46
2021/05/03 02:50:22;;;;;;;6.18;5.13;;;4.80;93.80;;;;;;5040826;28;20045;-47
2021/05/03 02:52:49;;;;;;;8.48;5.72;;;4.80;94.00;;;;;;5041618;28;20493;-44
2021/05/03 02:55:18;;;;;;;9.05;5.53;;;4.90;94.00;;;;;;5036825;28;20045;-45
2021/05/03 02:57:46;;;;;;;8.40;5.47;;;4.90;94.00;;;;;;5035842;28;20163;-46
2021/05/03 03:00:16;;;;;;;8.23;5.82;;;4.90;93.80;;;;;;5042815;28;20049;-45
2021/05/03 03:02:42;;;;;;;11.68;6.53;;;4.90;94.00;;;;;;5048016;28;20052;-45
2021/05/03 03:05:08;;;;;;;9.93;5.88;;;5.00;94.60;;;;;;5045200;28;20066;-47
2021/05/03 03:07:35;;;;;;;9.70;6.72;;;4.90;94.60;;;;;;5042781;28;20049;-48
2021/05/03 03:10:03;;;;;;;7.05;6.28;;;4.90;94.20;;;;;;5044311;28;20056;-44
2021/05/03 03:12:29;;;;;;;8.23;7.28;;;4.90;94.10;;;;;;5037851;28;20528;-47
2021/05/03 03:14:55;;;;;;;9.13;7.25;;;5.00;94.70;;;;;;5039981;28;20049;-46
2021/05/03 03:17:21;;;;;;;10.05;7.70;;;5.00;94.80;;;;;;5040804;28;20042;-46
2021/05/03 03:19:47;;;;;;;10.60;7.82;;;5.00;94.70;;;;;;5041199;28;20056;-47
2021/05/03 03:22:13;;;;;;;11.45;8.02;;;5.00;94.90;;;;;;5038080;28;20068;-46
2021/05/03 03:24:39;;;;;;;8.80;7.03;;;5.00;94.90;;;;;;5012319;28;20056;-45
2021/05/03 03:27:06;;;;;;;9.20;7.57;;;5.00;94.90;;;;;;5042054;28;20052;-46
2021/05/03 03:29:32;;;;;;;13.27;7.70;;;5.00;95.30;;;;;;5041844;28;20178;-46
2021/05/03 03:31:58;;;;;;;9.55;8.55;;;5.10;95.00;;;;;;5043298;28;20052;-47
2021/05/03 03:34:24;;;;;;;11.45;8.65;;;5.20;94.90;;;;;;5040824;28;20460;-45
2021/05/03 03:36:50;;;;;;;11.50;8.13;;;5.00;94.70;;;;;;5040055;28;20048;-45
2021/05/03 03:39:16;;;;;;;9.90;8.40;;;5.10;94.90;;;;;;5040281;28;20094;-46
2021/05/03 03:41:42;;;;;;;11.07;8.52;;;5.10;94.90;;;;;;5033653;28;20098;-47
2021/05/03 03:44:09;;;;;;;11.90;9.10;;;5.10;95.20;;;;;;5032735;28;20077;-44
2021/05/03 03:46:36;;;;;;;12.88;10.63;;;5.10;95.00;;;;;;5044209;28;20060;-46
2021/05/03 03:49:03;;;;;;;13.70;10.38;;;5.20;94.90;;;;;;5040082;28;20489;-46
2021/05/03 03:51:29;;;;;;;13.02;10.43;;;5.10;95.00;;;;;;5034492;28;20266;-49
2021/05/03 03:53:56;;;;;;;16.35;13.10;;;5.20;95.30;;;;;;5031423;28;20049;-47
2021/05/03 03:56:22;;;;;;;15.90;11.85;;;5.20;95.70;;;;;;5040132;28;20053;-46
2021/05/03 03:58:49;;;;;;;14.15;12.15;;;5.10;95.60;;;;;;5040944;28;20053;-45
2021/05/03 04:01:16;;;;;;;15.68;12.35;;;5.20;95.70;;;;;;5040104;28;20115;-47
2021/05/03 04:03:46;;;;;;;15.10;11.85;;;5.20;95.70;;;;;;5041787;28;20051;-46
2021/05/03 04:06:22;;;;;;;13.48;11.52;;;5.10;95.60;;;;;;5037056;28;20057;-47
2021/05/03 04:14:26;;;;;;;15.43;13.18;;;5.10;95.80;;;;;;5034962;28;20049;-46
2021/05/03 04:27:44;;;;;;;16.52;13.73;;;5.10;95.80;;;;;;5032688;28;20052;-46
2021/05/03 04:30:11;;;;;;;16.65;14.75;;;5.10;95.70;;;;;;5036168;28;20083;-47
2021/05/03 04:32:38;;;;;;;17.55;14.02;;;5.20;95.80;;;;;;5033244;28;20084;-45
2021/05/03 04:35:05;;;;;;;17.92;14.50;;;5.10;96.30;;;;;;5048608;28;20064;-48
2021/05/03 04:37:32;;;;;;;16.52;13.73;;;5.20;96.00;;;;;;5041451;28;20055;-46
2021/05/03 04:39:58;;;;;;;18.13;14.70;;;5.30;96.40;;;;;;5039486;28;20106;-48
2021/05/03 04:42:24;;;;;;;16.63;13.95;;;5.20;96.40;;;;;;5027031;28;20135;-46
2021/05/03 04:44:50;;;;;;;20.05;15.13;;;5.30;96.40;;;;;;5042160;28;20053;-46
2021/05/03 04:47:18;;;;;;;19.92;15.02;;;5.30;96.20;;;;;;5030842;28;20064;-47
2021/05/03 04:49:44;;;;;;;17.70;15.70;;;5.30;96.50;;;;;;5036875;28;20124;-45
2021/05/03 04:52:10;;;;;;;17.77;15.85;;;5.30;96.30;;;;;;5033176;28;20061;-46
2021/05/03 04:54:36;;;;;;;20.75;18.05;;;5.30;96.10;;;;;;5042638;28;20064;-46
2021/05/03 04:57:02;;;;;;;21.55;19.20;;;5.30;96.10;;;;;;5035511;28;20045;-50
2021/05/03 04:59:28;;;;;;;22.73;19.63;;;5.40;96.30;;;;;;5034205;28;20053;-49
2021/05/03 05:01:54;;;;;;;21.95;19.40;;;5.40;96.40;;;;;;5034325;28;20060;-48
2021/05/03 05:04:21;;;;;;;22.52;18.50;;;5.40;96.10;;;;;;5038232;28;20383;-47
2021/05/03 05:06:47;;;;;;;22.52;18.95;;;5.40;96.00;;;;;;5043477;28;20049;-47
2021/05/03 05:09:13;;;;;;;22.13;18.73;;;5.40;96.60;;;;;;5036585;28;20057;-45
2021/05/03 05:11:39;;;;;;;20.25;18.05;;;5.50;96.10;;;;;;5035501;28;20498;-45
2021/05/03 05:14:08;;;;;;;22.35;18.25;;;5.50;96.00;;;;;;5034419;28;20060;-47
2021/05/03 05:16:36;;;;;;;21.17;16.50;;;5.50;95.80;;;;;;5035122;28;20156;-47
2021/05/03 05:19:03;;;;;;;18.23;16.30;;;5.60;95.90;;;;;;5041050;28;20043;-50
2021/05/03 05:21:29;;;;;;;19.13;15.05;;;5.70;95.50;;;;;;5038624;28;20061;-47
2021/05/03 05:23:58;;;;;;;22.23;15.93;;;5.80;95.00;;;;;;5046570;28;20049;-56
2021/05/03 05:26:24;;;;;;;16.95;14.50;;;5.80;94.70;;;;;;5041139;28;20132;-54
2021/05/03 05:28:50;;;;;;;17.38;15.57;;;5.90;94.40;;;;;;5024690;28;20767;-54
2021/05/03 05:31:16;;;;;;;19.65;16.33;;;5.90;93.80;;;;;;5035035;28;20049;-47
2021/05/03 05:33:43;;;;;;;17.20;15.40;;;5.90;93.80;;;;;;5034274;28;20105;-50
2021/05/03 05:36:09;;;;;;;18.23;15.93;;;5.90;93.70;;;;;;5034854;28;20045;-47
2021/05/03 05:38:37;;;;;;;18.60;16.33;;;5.90;93.70;;;;;;5035051;28;20089;-46
2021/05/03 05:41:04;;;;;;;19.65;16.75;;;5.90;93.80;;;;;;5039719;28;20048;-46
2021/05/03 05:43:30;;;;;;;18.92;16.85;;;6.00;93.70;;;;;;5045425;28;20049;-51
2021/05/03 05:45:57;;;;;;;19.45;17.35;;;5.90;93.80;;;;;;5046421;28;20121;-45
2021/05/03 05:48:23;;;;;;;22.83;18.83;;;6.00;93.50;;;;;;5045759;28;20465;-46
2021/05/03 05:50:52;;;;;;;23.70;21.13;;;6.00;93.70;;;;;;5045430;28;20555;-45
2021/05/03 05:53:19;;;;;;;26.48;22.13;;;6.10;93.90;;;;;;5043822;28;20864;-45
2021/05/03 05:55:46;;;;;;;24.40;21.80;;;6.20;93.80;;;;;;5036910;28;20041;-48
2021/05/03 05:58:12;;;;;;;24.85;21.33;;;6.20;93.60;;;;;;5038964;28;20401;-50
2021/05/03 06:00:38;;;;;;;25.35;22.63;;;6.20;93.40;;;;;;5026205;28;20071;-53
2021/05/03 06:03:06;;;;;;;25.58;22.90;;;6.30;93.80;;;;;;5042503;28;20049;-46
2021/05/03 06:05:33;;;;;;;25.38;21.90;;;6.30;93.50;;;;;;5039110;28;20041;-46
2021/05/03 06:07:59;;;;;;;27.20;23.60;;;6.30;93.50;;;;;;5035578;28;20049;-44
2021/05/03 06:10:27;;;;;;;25.48;22.88;;;6.30;93.90;;;;;;5028636;28;20059;-44
2021/05/03 06:12:53;;;;;;;28.65;23.02;;;6.30;93.60;;;;;;5020037;28;20045;-41
2021/05/03 06:15:20;;;;;;;28.02;25.13;;;6.40;93.10;;;;;;5039120;28;20505;-48
2021/05/03 06:17:46;;;;;;;35.60;30.40;;;6.40;93.50;;;;;;5040593;28;20461;-46
2021/05/03 06:20:12;;;;;;;34.30;28.65;;;6.40;93.10;;;;;;5047284;28;20182;-45
2021/05/03 06:22:39;;;;;;;28.65;25.55;;;6.50;93.20;;;;;;5045529;28;20508;-44
2021/05/03 06:25:07;;;;;;;26.88;24.08;;;6.50;93.30;;;;;;5037234;28;20055;-45
2021/05/03 06:27:33;;;;;;;26.48;23.55;;;6.50;93.30;;;;;;5046084;28;20136;-45
2021/05/03 06:29:59;;;;;;;28.10;25.05;;;6.50;93.10;;;;;;5031324;28;20064;-45
2021/05/03 06:32:26;;;;;;;27.17;24.13;;;6.50;93.10;;;;;;5041548;28;20049;-48
2021/05/03 06:34:52;;;;;;;46.17;36.20;;;6.50;92.70;;;;;;5044850;28;20045;-46
2021/05/03 06:37:19;;;;;;;51.35;41.40;;;6.50;92.70;;;;;;5045681;28;20050;-47
2021/05/03 06:39:45;;;;;;;40.90;33.90;;;6.60;92.60;;;;;;5049863;28;20116;-48
2021/05/03 06:42:11;;;;;;;41.97;35.53;;;6.60;92.80;;;;;;5044293;28;20064;-50
2021/05/03 06:44:37;;;;;;;29.50;26.23;;;6.70;92.90;;;;;;5037029;28;20979;-47
2021/05/03 06:47:04;;;;;;;31.10;25.70;;;6.70;92.50;;;;;;5031477;28;20409;-47
2021/05/03 06:49:31;;;;;;;33.20;28.75;;;6.80;92.70;;;;;;5038660;28;20048;-45
2021/05/03 06:51:58;;;;;;;29.75;26.58;;;6.80;92.50;;;;;;5028246;28;20067;-47
2021/05/03 06:54:24;;;;;;;32.08;28.58;;;6.80;92.50;;;;;;5034604;28;20156;-45
2021/05/03 06:56:50;;;;;;;31.17;26.67;;;6.90;92.50;;;;;;5042872;28;20131;-45
2021/05/03 06:59:20;;;;;;;29.55;26.23;;;6.90;92.70;;;;;;5024728;28;20090;-47
2021/05/03 07:01:46;;;;;;;51.72;40.83;;;6.90;92.30;;;;;;5038765;28;20049;-45
2021/05/03 07:04:12;;;;;;;36.17;32.20;;;7.00;92.10;;;;;;5041298;28;20504;-46
2021/05/03 07:06:41;;;;;;;30.77;27.48;;;7.00;91.90;;;;;;5051513;28;20041;-45
2021/05/03 07:09:09;;;;;;;35.53;30.02;;;7.00;92.00;;;;;;5042417;28;20072;-45
2021/05/03 07:11:36;;;;;;;29.88;26.10;;;7.20;91.90;;;;;;5034588;28;20050;-48
2021/05/03 07:14:04;;;;;;;32.67;29.15;;;7.20;91.80;;;;;;5038733;28;20049;-49
2021/05/03 07:16:30;;;;;;;28.98;25.73;;;7.20;91.20;;;;;;5034613;28;20041;-46
2021/05/03 07:18:56;;;;;;;30.73;26.50;;;7.20;91.40;;;;;;5037824;28;20053;-50
2021/05/03 07:21:23;;;;;;;31.45;26.75;;;7.20;91.90;;;;;;5045623;28;20052;-48
2021/05/03 07:23:49;;;;;;;28.95;25.85;;;7.30;91.70;;;;;;5039561;28;20045;-48
2021/05/03 07:26:16;;;;;;;32.65;28.20;;;7.30;91.30;;;;;;5045656;28;20155;-49
2021/05/03 07:28:42;;;;;;;32.88;29.05;;;7.40;91.20;;;;;;5037318;28;20041;-47
2021/05/03 07:31:08;;;;;;;32.50;28.88;;;7.50;91.60;;;;;;5042373;28;20382;-47
2021/05/03 07:33:34;;;;;;;29.05;25.95;;;7.70;91.30;;;;;;5028579;28;20049;-48
2021/05/03 07:36:00;;;;;;;32.47;28.35;;;8.00;91.00;;;;;;5039094;28;20421;-48
2021/05/03 07:38:27;;;;;;;30.75;27.50;;;8.50;90.60;;;;;;5040461;28;20055;-46
2021/05/03 07:40:53;;;;;;;31.17;27.80;;;8.80;90.00;;;;;;5043042;28;20152;-50
2021/05/03 07:43:21;;;;;;;33.20;29.63;;;9.10;89.30;;;;;;5049194;28;20453;-49
2021/05/03 07:45:47;;;;;;;33.35;29.83;;;9.00;88.00;;;;;;5036736;28;20060;-48
2021/05/03 07:48:13;;;;;;;39.35;35.20;;;9.00;87.20;;;;;;5047483;28;20049;-45
2021/05/03 07:50:41;;;;;;;33.20;29.60;;;9.10;87.60;;;;;;5050140;28;20045;-48
2021/05/03 07:53:07;;;;;;;31.00;27.70;;;9.10;88.10;;;;;;5045501;28;20048;-46
2021/05/03 07:55:34;;;;;;;32.13;26.75;;;9.00;88.30;;;;;;5047042;28;20053;-47
2021/05/03 07:58:02;;;;;;;31.95;28.58;;;8.90;87.90;;;;;;5029677;28;20053;-49
2021/05/03 08:00:29;;;;;;;30.77;27.48;;;9.00;88.60;;;;;;5041280;28;20053;-47
2021/05/03 08:02:56;;;;;;;31.73;28.55;;;9.00;88.80;;;;;;5039899;28;20045;-49
2021/05/03 08:05:25;;;;;;;31.45;28.33;;;8.90;89.10;;;;;;5038068;28;20048;-47
2021/05/03 08:07:54;;;;;;;32.28;28.80;;;8.90;90.20;;;;;;5032690;28;20036;-52
2021/05/03 08:10:21;;;;;;;32.60;29.13;;;8.80;89.50;;;;;;5037252;28;20596;-49
2021/05/03 08:12:52;;;;;;;33.05;29.70;;;8.80;90.30;;;;;;5040456;28;20056;-50
2021/05/03 08:15:22;;;;;;;82.03;67.80;;;8.90;90.00;;;;;;5045575;28;20844;-49
2021/05/03 08:17:48;;;;;;;35.53;31.80;;;9.10;90.30;;;;;;5046275;28;20057;-49
2021/05/03 08:20:16;;;;;;;33.72;30.15;;;9.40;89.70;;;;;;5045266;28;20055;-46
2021/05/03 08:22:42;;;;;;;32.75;29.40;;;9.50;88.00;;;;;;5045641;28;20053;-48
2021/05/03 08:25:09;;;;;;;31.65;28.48;;;9.60;88.50;;;;;;5043759;28;20048;-48
2021/05/03 08:27:35;;;;;;;34.20;30.73;;;9.60;87.90;;;;;;5045369;28;20051;-46
2021/05/03 08:30:03;;;;;;;36.97;33.30;;;9.60;87.60;;;;;;5049176;28;20037;-46
2021/05/03 08:32:29;;;;;;;35.17;31.48;;;9.80;89.00;;;;;;5043097;28;20064;-48
2021/05/03 08:34:56;;;;;;;38.50;32.97;;;10.10;87.70;;;;;;5046382;28;20052;-48
2021/05/03 08:37:22;;;;;;;38.53;34.58;;;10.20;87.20;;;;;;5045545;28;20053;-49
2021/05/03 08:39:48;;;;;;;37.90;34.05;;;10.70;85.90;;;;;;5046885;28;20053;-51
2021/05/03 08:42:16;;;;;;;38.65;34.55;;;10.90;83.90;;;;;;5030111;28;20081;-46
2021/05/03 08:44:47;;;;;;;34.53;31.05;;;11.20;82.90;;;;;;5042437;28;20496;-47
2021/05/03 08:47:14;;;;;;;36.40;32.70;;;11.70;82.70;;;;;;5043677;28;20048;-47
2021/05/03 08:52:17;;;;;;;36.53;32.80;;;11.60;80.60;;;;;;5042321;28;20536;-47
2021/05/03 08:54:44;;;;;;;64.25;57.42;;;11.30;80.60;;;;;;5042227;28;20140;-47
2021/05/03 08:57:13;;;;;;;36.55;32.80;;;11.50;80.10;;;;;;5043794;28;20532;-52
2021/05/03 08:59:41;;;;;;;36.85;33.13;;;11.30;80.30;;;;;;5042556;28;20053;-49
2021/05/03 09:02:09;;;;;;;38.88;34.88;;;11.20;81.80;;;;;;5038046;28;20053;-49
2021/05/03 09:04:35;;;;;;;39.58;35.20;;;11.20;81.90;;;;;;5038294;28;20465;-48
2021/05/03 09:07:04;;;;;;;41.15;37.17;;;11.20;83.00;;;;;;5041314;28;20051;-52
2021/05/03 09:09:32;;;;;;;42.28;37.50;;;11.00;83.00;;;;;;5033515;28;20049;-49
2021/05/03 09:12:01;;;;;;;43.95;39.55;;;11.10;82.80;;;;;;5034593;28;20072;-49
2021/05/03 09:14:29;;;;;;;44.42;39.83;;;11.10;82.60;;;;;;5043747;28;20103;-48
2021/05/03 09:16:55;;;;;;;46.65;41.97;;;11.00;81.80;;;;;;5043295;28;20048;-48
2021/05/03 09:19:25;;;;;;;44.22;39.70;;;11.10;83.30;;;;;;5043372;28;20053;-48
2021/05/03 09:21:52;;;;;;;44.65;39.95;;;11.40;82.10;;;;;;5038199;28;20126;-48
2021/05/03 09:24:29;;;;;;;44.78;39.95;;;11.30;81.30;;;;;;5037496;28;20053;-50
2021/05/03 09:27:05;;;;;;;44.13;39.50;;;11.70;80.60;;;;;;5042165;28;20068;-45
2021/05/03 09:29:41;;;;;;;44.33;39.78;;;11.90;79.80;;;;;;5045665;28;20040;-52
2021/05/03 09:32:17;;;;;;;42.45;38.05;;;12.40;79.10;;;;;;5047472;28;20056;-49
2021/05/03 09:34:52;;;;;;;44.45;40.03;;;12.40;76.90;;;;;;5043391;28;20049;-49
2021/05/03 09:37:29;;;;;;;54.08;48.45;;;12.90;77.80;;;;;;5040927;28;20048;-50
2021/05/03 09:40:10;;;;;;;41.70;37.45;;;13.00;75.60;;;;;;5040301;28;20056;-50
2021/05/03 09:42:53;;;;;;;42.63;38.33;;;12.80;74.50;;;;;;5041933;28;20445;-53
2021/05/03 09:45:30;;;;;;;41.47;37.67;;;12.80;76.30;;;;;;5040156;28;20053;-46
2021/05/03 09:47:58;;;;;;;41.80;37.67;;;12.70;76.60;;;;;;5042757;28;20508;-47
2021/05/03 09:50:30;;;;;;;40.97;36.85;;;12.50;76.00;;;;;;5047401;28;20045;-47
2021/05/03 09:53:00;;;;;;;41.00;36.92;;;12.60;75.10;;;;;;5047102;28;20127;-51
2021/05/03 09:55:36;;;;;;;38.45;34.35;;;12.40;74.70;;;;;;5023498;28;20051;-47
2021/05/03 09:58:14;;;;;;;40.85;36.70;;;12.40;75.20;;;;;;5027713;28;20063;-49
2021/05/03 10:00:48;;;;;;;42.85;38.50;;;12.40;76.20;;;;;;5042241;28;20057;-49
2021/05/03 10:03:38;;;;;;;39.80;36.08;;;12.20;76.30;;;;;;5038419;28;20083;-46
2021/05/03 10:06:08;;;;;;;40.22;36.22;;;12.40;75.60;;;;;;5040393;28;20057;-49
2021/05/03 10:08:36;;;;;;;40.53;36.58;;;12.30;75.80;;;;;;5042927;28;20526;-49
2021/05/03 10:11:08;;;;;;;39.65;35.80;;;12.00;75.80;;;;;;5045084;28;20128;-48
2021/05/03 10:13:35;;;;;;;41.28;37.00;;;12.00;76.30;;;;;;5045592;28;20127;-47
2021/05/03 10:16:01;;;;;;;37.50;33.75;;;11.90;77.80;;;;;;5042924;28;20079;-46
2021/05/03 10:18:30;;;;;;;38.53;34.63;;;11.90;76.40;;;;;;5039310;28;20045;-50
2021/05/03 10:20:57;;;;;;;36.65;33.08;;;12.20;76.80;;;;;;5037119;28;20144;-48
2021/05/03 10:23:26;;;;;;;37.75;34.28;;;12.40;75.70;;;;;;5040257;28;20073;-49
2021/05/03 10:25:58;;;;;;;36.90;33.17;;;12.70;74.90;;;;;;5036980;28;20405;-50
2021/05/03 10:28:25;;;;;;;36.83;33.08;;;12.80;74.10;;;;;;5044421;28;20048;-48
2021/05/03 10:30:56;;;;;;;37.17;33.75;;;12.60;72.50;;;;;;5031465;28;20184;-49
2021/05/03 10:33:36;;;;;;;38.58;34.70;;;12.60;73.50;;;;;;5034561;28;20049;-45
2021/05/03 10:36:05;;;;;;;;;;;12.60;73.50;;;;;;5043873;28;20124;-47
2021/05/03 10:38:33;;;;;;;35.88;32.28;;;12.40;73.90;;;;;;5043991;28;20658;-50
2021/05/03 10:41:02;;;;;;;37.63;34.00;;;12.20;74.00;;;;;;5037012;28;20552;-49
2021/05/03 10:43:43;;;;;;;39.10;35.55;;;12.40;73.10;;;;;;5038330;28;20068;-50
2021/05/03 10:48:56;;;;;;;36.58;32.90;;;12.40;71.60;;;;;;5049681;28;20116;-50
2021/05/03 10:51:38;;;;;;;36.17;32.65;;;12.40;72.10;;;;;;5037614;28;20081;-49
2021/05/03 10:57:04;;;;;;;40.03;35.85;;;12.20;74.10;;;;;;5049687;28;20174;-46
2021/05/03 10:59:47;;;;;;;39.92;35.97;;;11.80;77.70;;;;;;5042944;28;20125;-46
2021/05/03 11:02:25;;;;;;;39.90;36.20;;;11.60;78.80;;;;;;5045775;28;20144;-47
2021/05/03 11:05:26;;;;;;;39.45;35.40;;;11.50;80.30;;;;;;5030386;28;20040;-49
2021/05/03 11:08:05;;;;;;;41.15;37.17;;;11.50;78.90;;;;;;5043540;28;20049;-46
2021/05/03 11:11:04;;;;;;;41.05;37.08;;;11.70;78.80;;;;;;5045617;28;20235;-48
2021/05/03 11:13:37;;;;;;;41.47;37.22;;;11.90;77.90;;;;;;5036252;28;20044;-46
2021/05/03 11:16:25;;;;;;;38.30;34.58;;;12.00;75.40;;;;;;5041932;28;20072;-46
2021/05/03 11:18:53;;;;;;;39.28;35.58;;;12.90;75.40;;;;;;5042149;28;20141;-47
2021/05/03 11:21:42;;;;;;;33.50;30.30;;;14.00;75.50;;;;;;5040292;28;20127;-48
2021/05/03 11:24:15;;;;;;;35.97;32.58;;;14.20;67.40;;;;;;5038034;28;20049;-51
2021/05/03 11:26:55;;;;;;;32.47;29.35;;;14.30;68.80;;;;;;5040864;28;20064;-49
2021/05/03 11:29:30;;;;;;;34.28;30.88;;;14.00;67.70;;;;;;5035586;28;20133;-52
2021/05/03 11:31:56;;;;;;;31.60;28.52;;;13.60;68.60;;;;;;5038008;28;20073;-50
2021/05/03 11:34:43;;;;;;;33.97;30.50;;;13.40;68.60;;;;;;5037177;28;20041;-47
2021/05/03 11:37:14;;;;;;;28.08;25.25;;;13.20;66.50;;;;;;5036822;28;20050;-45
2021/05/03 11:39:54;;;;;;;25.33;23.02;;;13.20;68.40;;;;;;5043903;28;20139;-51
2021/05/03 11:44:55;;;;;;;26.30;23.90;;;13.20;66.80;;;;;;5038384;28;20045;-45
2021/05/03 11:47:41;;;;;;;;;;;13.20;66.00;;;;;;5041460;28;20067;-48
2021/05/03 11:50:08;;;;;;;26.58;23.55;;;13.20;66.90;;;;;;5048764;28;19925;-49
2021/05/03 11:52:37;;;;;;;73.47;13.88;;;12.70;66.30;;;;;;5043485;28;20398;-48
2021/05/03 11:55:09;;;;;;;14.52;12.02;;;11.70;66.00;;;;;;5025403;28;20700;-48
2021/05/03 11:57:46;;;;;;;13.02;11.57;;;10.90;72.30;;;;;;5039070;28;20056;-51
2021/05/03 12:00:24;;;;;;;12.82;10.90;;;10.30;76.00;;;;;;5040577;28;20053;-47
2021/05/03 12:03:20;;;;;;;11.13;9.90;;;10.00;76.80;;;;;;5027882;28;20049;-48
2021/05/03 12:05:46;;;;;;;9.80;8.80;;;9.90;76.50;;;;;;4946407;28;20047;-50
2021/05/03 12:08:14;;;;;;;10.55;8.05;;;9.80;76.90;;;;;;4945853;28;20126;-49
2021/05/03 12:10:40;;;;;;;10.55;8.35;;;9.80;76.80;;;;;;4955841;28;20086;-45
2021/05/03 12:13:20;;;;;;;9.60;8.63;;;9.60;79.40;;;;;;4954953;28;20058;-48
2021/05/03 12:15:46;;;;;;;9.55;8.30;;;9.80;83.10;;;;;;4951763;28;20071;-51
2021/05/03 12:18:19;;;;;;;22.75;16.13;;;10.70;81.00;;;;;;4957975;28;20093;-47
2021/05/03 12:20:46;;;;;;;9.30;8.38;;;11.40;77.50;;;;;;4949060;28;20065;-46
2021/05/03 12:23:26;;;;;;;9.60;7.93;;;11.90;74.20;;;;;;4944749;28;20073;-46
2021/05/03 12:25:54;;;;;;;10.25;8.38;;;11.70;72.10;;;;;;4945120;29;20055;-46
2021/05/03 12:28:25;;;;;;;9.55;8.18;;;11.40;68.50;;;;;;4944107;28;20059;-49
2021/05/03 12:30:57;;;;;;;9.20;8.05;;;11.30;69.40;;;;;;4944821;28;20787;-48
2021/05/03 12:33:24;;;;;;;8.43;7.50;;;11.40;70.70;;;;;;4947916;28;20054;-47
2021/05/03 12:35:57;;;;;;;16.20;12.73;;;11.60;70.10;;;;;;4943778;28;20058;-46
2021/05/03 12:38:28;;;;;;;22.13;17.30;;;11.50;67.70;;;;;;4948033;28;20046;-48
2021/05/03 12:41:05;;;;;;;10.40;8.43;;;11.40;68.60;;;;;;4945364;28;20098;-48
2021/05/03 12:43:40;;;;;;;8.35;7.32;;;11.70;68.80;;;;;;5034494;28;20502;-50
2021/05/03 12:46:10;;;;;;;9.00;6.82;;;11.80;68.90;;;;;;5033921;28;20095;-48
2021/05/03 12:48:42;;;;;;;7.05;5.93;;;11.80;69.30;;;;;;5030002;28;20057;-46
2021/05/03 12:57:02;;;;;;;4.95;4.28;;;11.00;70.10;;;;;;5035263;28;20409;-50
2021/05/03 13:02:32;;;;;;;6.55;3.83;;;11.70;69.30;;;;;;5044149;28;20501;-47
2021/05/03 13:05:13;;;;;;;7.28;4.70;;;12.40;68.60;;;;;;5034473;28;20124;-46
2021/05/03 13:10:45;;;;;;;8.15;5.10;;;12.80;63.90;;;;;;5040697;28;20128;-48
2021/05/03 13:29:56;;;;;;;6.07;5.28;;;12.00;69.60;;;;;;5033439;28;20053;-46
2021/05/03 13:32:28;;;;;;;5.93;5.22;;;12.20;66.40;;;;;;5032681;28;20098;-47
2021/05/03 13:34:59;;;;;;;6.47;5.43;;;12.50;65.90;;;;;;5041712;28;20037;-47
2021/05/03 13:37:25;;;;;;;16.05;13.70;;;12.70;65.50;;;;;;5041828;28;20075;-49
2021/05/03 13:39:51;;;;;;;9.00;7.90;;;13.10;64.90;;;;;;5050392;28;20056;-49
2021/05/03 13:42:18;;;;;;;8.73;5.88;;;13.60;62.30;;;;;;5041859;28;20044;-46
2021/05/03 13:44:45;;;;;;;6.55;5.90;;;14.00;61.10;;;;;;5041999;28;20647;-48
2021/05/03 13:47:11;;;;;;;7.40;6.43;;;14.40;59.10;;;;;;5037224;28;20048;-46
2021/05/03 13:49:38;;;;;;;9.88;7.38;;;14.50;60.00;;;;;;5031004;28;20073;-49